sensor_id;sensor_type;location;lat;lon;timestamp;pressure;altitude;pressure_sealevel;temperature;humidity
13407;BME280;6774;48.208;10.766;2023-07-29T00:02:09;95283.94;;;16.92;95.02
13407;BME280;6774;48.208;10.766;2023-07-29T00:04:37;95280.47;;;16.92;95.41
13407;BME280;6774;48.208;10.766;2023-07-29T00:07:05;95281.03;;;16.94;95.07
13407;BME280;6774;48.208;10.766;2023-07-29T00:09:33;95282.09;;;16.93;95.46
13407;BME280;6774;48.208;10.766;2023-07-29T00:12:02;95282.66;;;16.95;95.31
13407;BME280;6774;48.208;10.766;2023-07-29T00:14:30;95278.59;;;17.04;95.09
13407;BME280;6774;48.208;10.766;2023-07-29T00:16:58;95280.22;;;17.05;94.86
13407;BME280;6774;48.208;10.766;2023-07-29T00:19:26;95278.84;;;17.02;94.59
13407;BME280;6774;48.208;10.766;2023-07-29T00:21:55;95275.13;;;17.03;94.67
13407;BME280;6774;48.208;10.766;2023-07-29T00:24:22;95276.41;;;17.01;94.97
13407;BME280;6774;48.208;10.766;2023-07-29T00:26:50;95270.59;;;17.04;94.95
13407;BME280;6774;48.208;10.766;2023-07-29T00:29:21;95262.03;;;17.02;95.16
13407;BME280;6774;48.208;10.766;2023-07-29T00:31:50;95267.38;;;17.02;95.30
13407;BME280;6774;48.208;10.766;2023-07-29T00:34:19;95272.69;;;17.02;95.53
13407;BME280;6774;48.208;10.766;2023-07-29T00:36:47;95263.09;;;17.01;95.45
13407;BME280;6774;48.208;10.766;2023-07-29T00:39:15;95262.03;;;17.02;95.95
13407;BME280;6774;48.208;10.766;2023-07-29T00:41:42;95256.22;;;17.05;95.92
13407;BME280;6774;48.208;10.766;2023-07-29T00:44:10;95262.13;;;17.07;96.19
13407;BME280;6774;48.208;10.766;2023-07-29T00:46:40;95257.16;;;17.11;96.25
13407;BME280;6774;48.208;10.766;2023-07-29T00:49:08;95253.69;;;17.10;96.08
13407;BME280;6774;48.208;10.766;2023-07-29T00:51:36;95251.00;;;17.10;95.97
13407;BME280;6774;48.208;10.766;2023-07-29T00:54:04;95244.28;;;17.08;95.69
13407;BME280;6774;48.208;10.766;2023-07-29T00:56:32;95248.47;;;17.03;95.78
13407;BME280;6774;48.208;10.766;2023-07-29T00:59:00;95242.31;;;17.03;95.60
13407;BME280;6774;48.208;10.766;2023-07-29T01:01:29;95239.09;;;17.01;95.78
13407;BME280;6774;48.208;10.766;2023-07-29T01:03:58;95239.53;;;16.98;95.59
13407;BME280;6774;48.208;10.766;2023-07-29T01:06:32;95238.72;;;16.97;95.45
13407;BME280;6774;48.208;10.766;2023-07-29T01:09:02;95232.81;;;16.95;95.75
13407;BME280;6774;48.208;10.766;2023-07-29T01:11:39;95226.69;;;16.95;95.52
13407;BME280;6774;48.208;10.766;2023-07-29T01:14:17;95232.50;;;16.92;95.38
13407;BME280;6774;48.208;10.766;2023-07-29T01:16:52;95237.91;;;16.97;94.54
13407;BME280;6774;48.208;10.766;2023-07-29T01:19:48;95242.31;;;17.03;93.98
13407;BME280;6774;48.208;10.766;2023-07-29T01:22:21;95232.25;;;16.93;93.61
13407;BME280;6774;48.208;10.766;2023-07-29T01:24:50;95225.91;;;16.83;93.71
13407;BME280;6774;48.208;10.766;2023-07-29T01:27:18;95235.06;;;16.75;93.84
13407;BME280;6774;48.208;10.766;2023-07-29T01:29:46;95235.16;;;16.68;94.08
13407;BME280;6774;48.208;10.766;2023-07-29T01:32:17;95245.81;;;16.68;93.98
13407;BME280;6774;48.208;10.766;2023-07-29T01:34:50;95234.91;;;16.58;93.85
13407;BME280;6774;48.208;10.766;2023-07-29T01:37:26;95247.66;;;16.56;94.01
13407;BME280;6774;48.208;10.766;2023-07-29T01:39:57;95239.88;;;16.55;94.00
13407;BME280;6774;48.208;10.766;2023-07-29T01:42:29;95234.78;;;16.53;94.20
13407;BME280;6774;48.208;10.766;2023-07-29T01:44:57;95232.59;;;16.50;94.18
13407;BME280;6774;48.208;10.766;2023-07-29T01:47:25;95225.63;;;16.49;94.03
13407;BME280;6774;48.208;10.766;2023-07-29T01:49:54;95230.97;;;16.49;94.12
13407;BME280;6774;48.208;10.766;2023-07-29T01:52:22;95228.16;;;16.44;93.76
13407;BME280;6774;48.208;10.766;2023-07-29T01:54:50;95222.84;;;16.44;93.66
13407;BME280;6774;48.208;10.766;2023-07-29T01:57:19;95219.59;;;16.42;93.86
13407;BME280;6774;48.208;10.766;2023-07-29T01:59:47;95229.69;;;16.40;94.20
13407;BME280;6774;48.208;10.766;2023-07-29T02:02:15;95231.31;;;16.41;93.72
13407;BME280;6774;48.208;10.766;2023-07-29T02:04:43;95229.53;;;16.35;93.75
13407;BME280;6774;48.208;10.766;2023-07-29T02:07:12;95228.16;;;16.20;94.00
13407;BME280;6774;48.208;10.766;2023-07-29T02:09:39;95233.78;;;16.01;94.76
13407;BME280;6774;48.208;10.766;2023-07-29T02:12:07;95230.38;;;15.82;95.19
13407;BME280;6774;48.208;10.766;2023-07-29T02:14:39;95231.53;;;15.86;95.09
13407;BME280;6774;48.208;10.766;2023-07-29T02:17:07;95227.31;;;15.67;96.11
13407;BME280;6774;48.208;10.766;2023-07-29T02:19:35;95234.91;;;15.63;96.52
13407;BME280;6774;48.208;10.766;2023-07-29T02:22:03;95222.72;;;15.74;95.51
13407;BME280;6774;48.208;10.766;2023-07-29T02:24:31;95227.13;;;15.80;95.13
13407;BME280;6774;48.208;10.766;2023-07-29T02:26:59;95228.31;;;15.84;95.97
13407;BME280;6774;48.208;10.766;2023-07-29T02:29:27;95225.91;;;15.94;95.74
13407;BME280;6774;48.208;10.766;2023-07-29T02:31:57;95229.72;;;15.98;96.19
13407;BME280;6774;48.208;10.766;2023-07-29T02:34:24;95218.81;;;15.88;96.61
13407;BME280;6774;48.208;10.766;2023-07-29T02:36:52;95227.13;;;15.80;96.14
13407;BME280;6774;48.208;10.766;2023-07-29T02:39:20;95218.97;;;15.63;96.17
13407;BME280;6774;48.208;10.766;2023-07-29T02:41:48;95210.78;;;15.64;95.99
13407;BME280;6774;48.208;10.766;2023-07-29T02:44:16;95215.50;;;15.62;96.86
13407;BME280;6774;48.208;10.766;2023-07-29T02:46:44;95219.09;;;15.68;96.40
13407;BME280;6774;48.208;10.766;2023-07-29T02:49:13;95219.69;;;15.70;95.57
13407;BME280;6774;48.208;10.766;2023-07-29T02:51:41;95211.47;;;15.72;95.92
13407;BME280;6774;48.208;10.766;2023-07-29T02:54:08;95215.88;;;15.66;96.58
13407;BME280;6774;48.208;10.766;2023-07-29T02:56:36;95220.22;;;15.60;96.88
13407;BME280;6774;48.208;10.766;2023-07-29T02:59:04;95218.44;;;15.54;96.75
13407;BME280;6774;48.208;10.766;2023-07-29T03:01:32;95212.25;;;15.60;96.63
13407;BME280;6774;48.208;10.766;2023-07-29T03:04:00;95221.84;;;15.61;96.64
13407;BME280;6774;48.208;10.766;2023-07-29T03:06:30;95224.94;;;15.58;96.79
13407;BME280;6774;48.208;10.766;2023-07-29T03:08:57;95218.75;;;15.64;96.69
13407;BME280;6774;48.208;10.766;2023-07-29T03:11:25;95217.03;;;15.70;96.63
13407;BME280;6774;48.208;10.766;2023-07-29T03:13:53;95214.13;;;15.72;96.73
13407;BME280;6774;48.208;10.766;2023-07-29T03:16:20;95207.91;;;15.78;96.63
13407;BME280;6774;48.208;10.766;2023-07-29T03:18:53;95195.91;;;15.87;96.44
13407;BME280;6774;48.208;10.766;2023-07-29T03:21:20;95197.91;;;15.91;96.36
13407;BME280;6774;48.208;10.766;2023-07-29T03:23:49;95190.84;;;15.97;95.76
13407;BME280;6774;48.208;10.766;2023-07-29T03:26:17;95183.44;;;15.99;95.98
13407;BME280;6774;48.208;10.766;2023-07-29T03:28:45;95190.97;;;16.02;95.93
13407;BME280;6774;48.208;10.766;2023-07-29T03:31:13;95186.69;;;16.01;95.68
13407;BME280;6774;48.208;10.766;2023-07-29T03:33:41;95183.56;;;16.04;95.54
13407;BME280;6774;48.208;10.766;2023-07-29T03:36:09;95188.31;;;16.02;95.55
13407;BME280;6774;48.208;10.766;2023-07-29T03:38:37;95187.50;;;16.02;95.54
13407;BME280;6774;48.208;10.766;2023-07-29T03:41:09;95179.28;;;16.03;95.34
13407;BME280;6774;48.208;10.766;2023-07-29T03:43:37;95173.97;;;16.03;95.49
13407;BME280;6774;48.208;10.766;2023-07-29T03:46:04;95179.28;;;16.03;95.45
13407;BME280;6774;48.208;10.766;2023-07-29T03:48:37;95172.34;;;16.02;95.47
13407;BME280;6774;48.208;10.766;2023-07-29T03:51:05;95184.59;;;16.03;95.57
13407;BME280;6774;48.208;10.766;2023-07-29T03:53:33;95179.28;;;16.03;95.39
13407;BME280;6774;48.208;10.766;2023-07-29T03:56:02;95181.94;;;16.03;95.59
13407;BME280;6774;48.208;10.766;2023-07-29T03:58:31;95183.69;;;16.09;95.16
13407;BME280;6774;48.208;10.766;2023-07-29T04:00:59;95184.94;;;16.07;95.29
13407;BME280;6774;48.208;10.766;2023-07-29T04:03:26;95182.53;;;16.05;95.05
13407;BME280;6774;48.208;10.766;2023-07-29T04:05:55;95183.56;;;16.04;94.96
13407;BME280;6774;48.208;10.766;2023-07-29T04:08:23;95185.75;;;16.07;95.33
13407;BME280;6774;48.208;10.766;2023-07-29T04:10:51;95180.00;;;16.10;95.24
13407;BME280;6774;48.208;10.766;2023-07-29T04:13:19;95185.50;;;15.97;95.02
13407;BME280;6774;48.208;10.766;2023-07-29T04:15:48;95189.09;;;15.91;95.38
13407;BME280;6774;48.208;10.766;2023-07-29T04:18:16;95186.00;;;16.06;95.05
13407;BME280;6774;48.208;10.766;2023-07-29T04:20:45;95185.44;;;16.15;94.60
13407;BME280;6774;48.208;10.766;2023-07-29T04:23:12;95175.72;;;16.21;94.23
13407;BME280;6774;48.208;10.766;2023-07-29T04:25:40;95173.53;;;16.30;94.38
13407;BME280;6774;48.208;10.766;2023-07-29T04:28:08;95166.81;;;16.39;94.55
13407;BME280;6774;48.208;10.766;2023-07-29T04:30:36;95162.84;;;16.53;94.75
13407;BME280;6774;48.208;10.766;2023-07-29T04:33:05;95158.69;;;16.57;95.02
13407;BME280;6774;48.208;10.766;2023-07-29T04:35:33;95167.25;;;16.59;95.07
13407;BME280;6774;48.208;10.766;2023-07-29T04:38:01;95162.06;;;16.64;95.53
13407;BME280;6774;48.208;10.766;2023-07-29T04:40:29;95158.03;;;16.73;95.64
13407;BME280;6774;48.208;10.766;2023-07-29T04:42:57;95160.53;;;16.80;95.70
13407;BME280;6774;48.208;10.766;2023-07-29T04:45:28;95157.47;;;17.00;95.80
13407;BME280;6774;48.208;10.766;2023-07-29T04:47:56;95166.06;;;17.02;95.83
13407;BME280;6774;48.208;10.766;2023-07-29T04:50:25;95158.03;;;17.14;95.64
13407;BME280;6774;48.208;10.766;2023-07-29T04:52:53;95162.38;;;17.31;95.16
13407;BME280;6774;48.208;10.766;2023-07-29T04:55:20;95161.75;;;17.41;94.72
13407;BME280;6774;48.208;10.766;2023-07-29T04:57:48;95165.78;;;17.44;95.04
13407;BME280;6774;48.208;10.766;2023-07-29T05:00:16;95174.47;;;17.51;95.66
13407;BME280;6774;48.208;10.766;2023-07-29T05:02:44;95172.59;;;17.51;95.97
13407;BME280;6774;48.208;10.766;2023-07-29T05:05:13;95176.56;;;17.49;96.44
13407;BME280;6774;48.208;10.766;2023-07-29T05:07:42;95176.94;;;17.69;95.23
13407;BME280;6774;48.208;10.766;2023-07-29T05:10:10;95181.34;;;17.75;94.91
13407;BME280;6774;48.208;10.766;2023-07-29T05:12:37;95161.94;;;17.80;94.76
13407;BME280;6774;48.208;10.766;2023-07-29T05:15:06;95145.53;;;17.88;94.63
13407;BME280;6774;48.208;10.766;2023-07-29T05:17:34;95149.16;;;17.99;94.46
13407;BME280;6774;48.208;10.766;2023-07-29T05:20:04;95158.31;;;18.03;94.28
13407;BME280;6774;48.208;10.766;2023-07-29T05:22:32;95159.44;;;18.07;94.35
13407;BME280;6774;48.208;10.766;2023-07-29T05:25:01;95156.88;;;18.12;94.91
13407;BME280;6774;48.208;10.766;2023-07-29T05:27:29;95167.31;;;18.13;95.00
13407;BME280;6774;48.208;10.766;2023-07-29T05:29:57;95176.53;;;18.23;94.96
13407;BME280;6774;48.208;10.766;2023-07-29T05:32:24;95169.22;;;18.35;94.58
13407;BME280;6774;48.208;10.766;2023-07-29T05:34:53;95173.44;;;18.47;94.46
13407;BME280;6774;48.208;10.766;2023-07-29T05:37:21;95164.53;;;18.59;93.22
13407;BME280;6774;48.208;10.766;2023-07-29T05:39:49;95160.41;;;18.68;92.52
13407;BME280;6774;48.208;10.766;2023-07-29T05:42:18;95164.31;;;18.82;91.75
13407;BME280;6774;48.208;10.766;2023-07-29T05:44:46;95159.09;;;18.92;91.53
13407;BME280;6774;48.208;10.766;2023-07-29T05:47:14;95159.31;;;19.08;91.25
13407;BME280;6774;48.208;10.766;2023-07-29T05:49:42;95161.91;;;19.24;90.23
13407;BME280;6774;48.208;10.766;2023-07-29T05:52:10;95167.75;;;19.43;89.74
13407;BME280;6774;48.208;10.766;2023-07-29T05:54:37;95175.41;;;19.56;89.02
13407;BME280;6774;48.208;10.766;2023-07-29T05:57:06;95207.66;;;19.23;91.02
13407;BME280;6774;48.208;10.766;2023-07-29T05:59:35;95206.94;;;19.11;92.27
13407;BME280;6774;48.208;10.766;2023-07-29T06:02:03;95219.56;;;18.93;93.25
13407;BME280;6774;48.208;10.766;2023-07-29T06:04:32;95216.38;;;18.74;95.01
13407;BME280;6774;48.208;10.766;2023-07-29T06:07:00;95225.75;;;18.77;94.81
13407;BME280;6774;48.208;10.766;2023-07-29T06:09:27;95228.84;;;18.69;94.23
13407;BME280;6774;48.208;10.766;2023-07-29T06:11:55;95223.47;;;18.86;93.48
13407;BME280;6774;48.208;10.766;2023-07-29T06:14:23;95223.06;;;18.94;93.16
13407;BME280;6774;48.208;10.766;2023-07-29T06:16:53;95234.47;;;18.89;93.04
13407;BME280;6774;48.208;10.766;2023-07-29T06:19:20;95247.94;;;18.78;93.49
13407;BME280;6774;48.208;10.766;2023-07-29T06:21:48;95245.69;;;18.69;94.86
13407;BME280;6774;48.208;10.766;2023-07-29T06:24:16;95234.69;;;18.66;94.91
13407;BME280;6774;48.208;10.766;2023-07-29T06:26:44;95233.22;;;18.75;95.12
13407;BME280;6774;48.208;10.766;2023-07-29T06:29:12;95233.53;;;18.79;95.02
13407;BME280;6774;48.208;10.766;2023-07-29T06:31:39;95231.25;;;18.87;94.48
13407;BME280;6774;48.208;10.766;2023-07-29T06:34:08;95227.81;;;18.92;94.28
13407;BME280;6774;48.208;10.766;2023-07-29T06:36:36;95229.94;;;18.90;94.41
13407;BME280;6774;48.208;10.766;2023-07-29T06:39:04;95233.66;;;18.89;94.19
13407;BME280;6774;48.208;10.766;2023-07-29T06:41:32;95216.66;;;18.95;94.01
13407;BME280;6774;48.208;10.766;2023-07-29T06:44:04;95213.53;;;19.03;93.60
13407;BME280;6774;48.208;10.766;2023-07-29T06:46:32;95191.47;;;19.13;92.42
13407;BME280;6774;48.208;10.766;2023-07-29T06:48:59;95177.66;;;19.21;91.49
13407;BME280;6774;48.208;10.766;2023-07-29T06:51:28;95187.69;;;19.30;91.37
13407;BME280;6774;48.208;10.766;2023-07-29T06:53:59;95198.13;;;19.32;90.57
13407;BME280;6774;48.208;10.766;2023-07-29T06:56:27;95200.25;;;19.30;91.54
13407;BME280;6774;48.208;10.766;2023-07-29T06:58:54;95199.09;;;19.26;92.78
13407;BME280;6774;48.208;10.766;2023-07-29T07:01:22;95204.31;;;19.38;91.95
13407;BME280;6774;48.208;10.766;2023-07-29T07:03:51;95204.34;;;19.16;93.02
13407;BME280;6774;48.208;10.766;2023-07-29T07:06:22;95194.44;;;19.38;92.66
13407;BME280;6774;48.208;10.766;2023-07-29T07:08:52;95200.50;;;19.55;92.02
13407;BME280;6774;48.208;10.766;2023-07-29T07:11:20;95195.38;;;19.71;91.58
13407;BME280;6774;48.208;10.766;2023-07-29T07:13:47;95190.56;;;19.73;91.08
13407;BME280;6774;48.208;10.766;2023-07-29T07:16:15;95195.63;;;19.96;90.74
13407;BME280;6774;48.208;10.766;2023-07-29T07:18:43;95195.44;;;20.08;90.34
13407;BME280;6774;48.208;10.766;2023-07-29T07:21:11;95194.66;;;20.07;90.41
13407;BME280;6774;48.208;10.766;2023-07-29T07:23:39;95195.06;;;20.26;90.12
13407;BME280;6774;48.208;10.766;2023-07-29T07:26:08;95187.38;;;20.35;89.74
13407;BME280;6774;48.208;10.766;2023-07-29T07:28:35;95182.13;;;20.45;89.34
13407;BME280;6774;48.208;10.766;2023-07-29T07:31:03;95184.91;;;20.60;89.23
13407;BME280;6774;48.208;10.766;2023-07-29T07:33:31;95190.06;;;20.67;88.63
13407;BME280;6774;48.208;10.766;2023-07-29T07:35:58;95191.50;;;20.85;87.83
13407;BME280;6774;48.208;10.766;2023-07-29T07:38:26;95187.75;;;20.86;87.47
13407;BME280;6774;48.208;10.766;2023-07-29T07:41:17;95192.41;;;21.06;88.24
13407;BME280;6774;48.208;10.766;2023-07-29T07:43:44;95185.75;;;21.18;86.38
13407;BME280;6774;48.208;10.766;2023-07-29T07:46:12;95187.38;;;21.19;85.31
13407;BME280;6774;48.208;10.766;2023-07-29T07:48:40;95190.44;;;21.33;85.31
13407;BME280;6774;48.208;10.766;2023-07-29T07:51:11;95193.81;;;21.13;85.76
13407;BME280;6774;48.208;10.766;2023-07-29T07:53:39;95185.84;;;21.28;85.28
13407;BME280;6774;48.208;10.766;2023-07-29T07:56:07;95184.84;;;21.50;84.05
13407;BME280;6774;48.208;10.766;2023-07-29T07:58:37;95187.22;;;21.36;84.65
13407;BME280;6774;48.208;10.766;2023-07-29T08:01:06;95180.03;;;21.62;84.78
13407;BME280;6774;48.208;10.766;2023-07-29T08:03:35;95178.44;;;21.61;84.70
13407;BME280;6774;48.208;10.766;2023-07-29T08:06:04;95176.84;;;21.70;84.30
13407;BME280;6774;48.208;10.766;2023-07-29T08:08:36;95175.50;;;21.73;83.65
13407;BME280;6774;48.208;10.766;2023-07-29T08:11:04;95181.16;;;21.76;83.40
13407;BME280;6774;48.208;10.766;2023-07-29T08:13:32;95190.31;;;21.91;83.99
13407;BME280;6774;48.208;10.766;2023-07-29T08:16:01;95184.47;;;22.09;84.44
13407;BME280;6774;48.208;10.766;2023-07-29T08:18:29;95188.78;;;22.25;84.56
13407;BME280;6774;48.208;10.766;2023-07-29T08:20:58;95191.97;;;22.48;82.94
13407;BME280;6774;48.208;10.766;2023-07-29T08:23:29;95185.53;;;22.54;84.07
13407;BME280;6774;48.208;10.766;2023-07-29T08:25:58;95183.91;;;22.63;83.60
13407;BME280;6774;48.208;10.766;2023-07-29T08:28:29;95178.00;;;22.61;82.68
13407;BME280;6774;48.208;10.766;2023-07-29T08:30:58;95182.31;;;22.62;83.36
13407;BME280;6774;48.208;10.766;2023-07-29T08:33:27;95176.34;;;22.80;83.75
13407;BME280;6774;48.208;10.766;2023-07-29T08:35:55;95183.00;;;23.23;81.75
13407;BME280;6774;48.208;10.766;2023-07-29T08:38:24;95170.75;;;23.51;79.36
13407;BME280;6774;48.208;10.766;2023-07-29T08:40:59;95178.19;;;23.10;80.22
13407;BME280;6774;48.208;10.766;2023-07-29T08:43:32;95169.16;;;23.40;79.61
13407;BME280;6774;48.208;10.766;2023-07-29T08:46:00;95175.31;;;23.61;81.11
13407;BME280;6774;48.208;10.766;2023-07-29T08:48:32;95178.78;;;23.56;80.49
13407;BME280;6774;48.208;10.766;2023-07-29T08:51:03;95174.03;;;23.43;80.60
13407;BME280;6774;48.208;10.766;2023-07-29T08:53:31;95169.91;;;23.56;79.10
13407;BME280;6774;48.208;10.766;2023-07-29T08:56:00;95176.22;;;23.36;79.75
13407;BME280;6774;48.208;10.766;2023-07-29T08:58:28;95172.38;;;23.47;79.66
13407;BME280;6774;48.208;10.766;2023-07-29T09:00:56;95173.06;;;23.09;78.38
13407;BME280;6774;48.208;10.766;2023-07-29T09:03:24;95169.97;;;23.46;81.14
13407;BME280;6774;48.208;10.766;2023-07-29T09:05:55;95179.50;;;23.18;78.01
13407;BME280;6774;48.208;10.766;2023-07-29T09:08:24;95182.47;;;23.81;79.66
13407;BME280;6774;48.208;10.766;2023-07-29T09:10:52;95171.56;;;24.01;77.10
13407;BME280;6774;48.208;10.766;2023-07-29T09:13:21;95155.47;;;24.59;78.03
13407;BME280;6774;48.208;10.766;2023-07-29T09:15:49;95164.00;;;24.95;75.99
13407;BME280;6774;48.208;10.766;2023-07-29T09:18:19;95163.75;;;25.21;72.31
13407;BME280;6774;48.208;10.766;2023-07-29T09:20:48;95159.78;;;25.13;73.16
13407;BME280;6774;48.208;10.766;2023-07-29T09:23:17;95164.25;;;24.99;73.82
13407;BME280;6774;48.208;10.766;2023-07-29T09:25:46;95149.78;;;25.38;73.57
13407;BME280;6774;48.208;10.766;2023-07-29T09:28:15;95154.47;;;25.51;72.67
13407;BME280;6774;48.208;10.766;2023-07-29T09:30:45;95156.47;;;25.21;71.96
13407;BME280;6774;48.208;10.766;2023-07-29T09:33:14;95156.47;;;24.98;74.42
13407;BME280;6774;48.208;10.766;2023-07-29T09:35:41;95158.13;;;24.64;73.29
13407;BME280;6774;48.208;10.766;2023-07-29T09:38:14;95168.22;;;24.54;73.89
13407;BME280;6774;48.208;10.766;2023-07-29T09:40:43;95163.34;;;25.33;72.71
13407;BME280;6774;48.208;10.766;2023-07-29T09:43:11;95173.72;;;25.26;71.65
13407;BME280;6774;48.208;10.766;2023-07-29T09:45:39;95175.56;;;25.06;70.66
13407;BME280;6774;48.208;10.766;2023-07-29T09:48:08;95162.06;;;25.49;73.08
13407;BME280;6774;48.208;10.766;2023-07-29T09:50:37;95156.09;;;25.52;71.23
13407;BME280;6774;48.208;10.766;2023-07-29T09:53:07;95158.00;;;25.51;69.82
13407;BME280;6774;48.208;10.766;2023-07-29T09:55:34;95152.44;;;26.37;68.90
13407;BME280;6774;48.208;10.766;2023-07-29T09:58:03;95143.91;;;25.55;67.21
13407;BME280;6774;48.208;10.766;2023-07-29T10:00:35;95139.22;;;26.35;70.19
13407;BME280;6774;48.208;10.766;2023-07-29T10:03:04;95146.31;;;26.31;69.65
13407;BME280;6774;48.208;10.766;2023-07-29T10:05:33;95143.31;;;26.52;68.02
13407;BME280;6774;48.208;10.766;2023-07-29T10:08:02;95148.66;;;26.19;67.69
13407;BME280;6774;48.208;10.766;2023-07-29T10:10:30;95151.25;;;25.73;69.63
13407;BME280;6774;48.208;10.766;2023-07-29T10:12:58;95150.81;;;25.42;69.84
13407;BME280;6774;48.208;10.766;2023-07-29T10:15:28;95146.78;;;26.01;70.19
13407;BME280;6774;48.208;10.766;2023-07-29T10:17:57;95145.91;;;26.24;68.86
13407;BME280;6774;48.208;10.766;2023-07-29T10:20:25;95159.00;;;25.98;67.53
13407;BME280;6774;48.208;10.766;2023-07-29T10:22:56;95150.38;;;25.35;68.50
13407;BME280;6774;48.208;10.766;2023-07-29T10:25:31;95161.28;;;25.48;68.62
13407;BME280;6774;48.208;10.766;2023-07-29T10:28:04;95166.19;;;25.65;68.58
13407;BME280;6774;48.208;10.766;2023-07-29T10:30:34;95171.81;;;25.69;67.20
13407;BME280;6774;48.208;10.766;2023-07-29T10:33:03;95182.41;;;24.30;69.08
13407;BME280;6774;48.208;10.766;2023-07-29T10:35:32;95186.94;;;23.46;71.41
13407;BME280;6774;48.208;10.766;2023-07-29T10:38:01;95183.38;;;22.71;74.12
13407;BME280;6774;48.208;10.766;2023-07-29T10:40:43;95165.31;;;22.82;73.62
13407;BME280;6774;48.208;10.766;2023-07-29T10:43:13;95180.34;;;23.08;73.30
13407;BME280;6774;48.208;10.766;2023-07-29T10:45:47;95169.53;;;23.13;73.42
13407;BME280;6774;48.208;10.766;2023-07-29T10:48:54;95181.63;;;23.26;73.79
13407;BME280;6774;48.208;10.766;2023-07-29T10:51:27;95175.09;;;23.42;75.60
13407;BME280;6774;48.208;10.766;2023-07-29T10:53:57;95161.59;;;23.47;74.57
13407;BME280;6774;48.208;10.766;2023-07-29T10:56:30;95166.47;;;23.50;74.70
13407;BME280;6774;48.208;10.766;2023-07-29T10:59:02;95167.75;;;23.63;75.27
13407;BME280;6774;48.208;10.766;2023-07-29T11:01:53;95164.56;;;24.00;74.67
13407;BME280;6774;48.208;10.766;2023-07-29T11:04:25;95161.41;;;23.88;75.56
13407;BME280;6774;48.208;10.766;2023-07-29T11:09:52;95158.22;;;24.54;74.02
13407;BME280;6774;48.208;10.766;2023-07-29T11:12:39;95163.25;;;24.32;74.34
13407;BME280;6774;48.208;10.766;2023-07-29T11:15:16;95149.53;;;24.62;73.33
13407;BME280;6774;48.208;10.766;2023-07-29T11:17:47;95150.25;;;24.97;74.14
13407;BME280;6774;48.208;10.766;2023-07-29T11:20:16;95140.47;;;25.49;72.87
13407;BME280;6774;48.208;10.766;2023-07-29T11:22:45;95145.56;;;25.69;71.33
13407;BME280;6774;48.208;10.766;2023-07-29T11:25:15;95145.16;;;25.62;71.69
13407;BME280;6774;48.208;10.766;2023-07-29T11:27:43;95138.34;;;25.46;71.31
13407;BME280;6774;48.208;10.766;2023-07-29T11:30:13;95135.81;;;25.31;71.02
13407;BME280;6774;48.208;10.766;2023-07-29T11:32:42;95135.53;;;25.32;71.54
13407;BME280;6774;48.208;10.766;2023-07-29T11:35:13;95113.97;;;25.08;72.17
13407;BME280;6774;48.208;10.766;2023-07-29T11:37:44;95125.84;;;24.54;74.87
13407;BME280;6774;48.208;10.766;2023-07-29T11:40:14;95120.66;;;24.63;76.05
13407;BME280;6774;48.208;10.766;2023-07-29T11:42:42;95124.63;;;24.71;76.90
13407;BME280;6774;48.208;10.766;2023-07-29T11:45:10;95126.91;;;24.82;76.14
13407;BME280;6774;48.208;10.766;2023-07-29T11:47:40;95132.56;;;24.57;77.15
13407;BME280;6774;48.208;10.766;2023-07-29T11:50:10;95131.97;;;24.89;77.24
13407;BME280;6774;48.208;10.766;2023-07-29T11:52:43;95121.72;;;25.15;76.83
13407;BME280;6774;48.208;10.766;2023-07-29T11:55:12;95119.44;;;24.74;76.63
13407;BME280;6774;48.208;10.766;2023-07-29T11:57:41;95122.38;;;25.02;77.63
13407;BME280;6774;48.208;10.766;2023-07-29T12:00:11;95120.59;;;24.92;77.52
13407;BME280;6774;48.208;10.766;2023-07-29T12:02:43;95118.75;;;25.16;76.92
13407;BME280;6774;48.208;10.766;2023-07-29T12:05:13;95124.06;;;24.98;77.27
13407;BME280;6774;48.208;10.766;2023-07-29T12:07:44;95110.69;;;25.11;77.16
13407;BME280;6774;48.208;10.766;2023-07-29T12:10:12;95114.88;;;25.22;76.99
13407;BME280;6774;48.208;10.766;2023-07-29T12:12:44;95105.09;;;25.27;76.27
13407;BME280;6774;48.208;10.766;2023-07-29T12:15:12;95101.31;;;25.28;76.94
13407;BME280;6774;48.208;10.766;2023-07-29T12:17:41;95136.41;;;25.28;77.86
13407;BME280;6774;48.208;10.766;2023-07-29T12:20:09;95133.00;;;24.69;80.09
13407;BME280;6774;48.208;10.766;2023-07-29T12:22:38;95141.19;;;23.86;81.03
13407;BME280;6774;48.208;10.766;2023-07-29T12:25:08;95129.38;;;23.32;83.41
13407;BME280;6774;48.208;10.766;2023-07-29T12:27:35;95121.66;;;23.70;83.66
13407;BME280;6774;48.208;10.766;2023-07-29T12:30:04;95123.63;;;23.93;82.92
13407;BME280;6774;48.208;10.766;2023-07-29T12:32:32;95114.78;;;24.22;83.15
13407;BME280;6774;48.208;10.766;2023-07-29T12:35:00;95133.63;;;24.27;80.62
13407;BME280;6774;48.208;10.766;2023-07-29T12:37:31;95132.06;;;24.21;81.16
13407;BME280;6774;48.208;10.766;2023-07-29T12:40:00;95122.06;;;24.21;79.66
13407;BME280;6774;48.208;10.766;2023-07-29T12:42:29;95109.16;;;24.18;76.80
13407;BME280;6774;48.208;10.766;2023-07-29T12:44:57;95121.03;;;24.17;78.63
13407;BME280;6774;48.208;10.766;2023-07-29T12:47:24;95120.97;;;24.22;80.20
13407;BME280;6774;48.208;10.766;2023-07-29T12:49:52;95117.41;;;24.32;78.72
13407;BME280;6774;48.208;10.766;2023-07-29T12:52:20;95098.47;;;24.42;79.30
13407;BME280;6774;48.208;10.766;2023-07-29T12:54:47;95114.69;;;24.37;80.37
13407;BME280;6774;48.208;10.766;2023-07-29T12:57:15;95124.63;;;24.42;78.90
13407;BME280;6774;48.208;10.766;2023-07-29T12:59:44;95116.63;;;24.31;79.25
13407;BME280;6774;48.208;10.766;2023-07-29T13:02:12;95126.44;;;24.17;79.91
13407;BME280;6774;48.208;10.766;2023-07-29T13:04:40;95133.81;;;24.06;78.75
13407;BME280;6774;48.208;10.766;2023-07-29T13:07:07;95129.25;;;24.31;79.58
13407;BME280;6774;48.208;10.766;2023-07-29T13:09:35;95128.66;;;24.44;79.42
13407;BME280;6774;48.208;10.766;2023-07-29T13:12:03;95137.13;;;24.61;78.59
13407;BME280;6774;48.208;10.766;2023-07-29T13:14:31;95130.56;;;24.67;77.91